Blacoveschenka, Kazakhstan
Current Conditions -  °F | °C
As of 4:00 PM on Sunday 25 Jan 2015 (Local Time) from UACP Reporting Station
Clear Clear  
Wind Chill: -31°   Ceiling: Unl
Heat Index: -15°   Visibility: 6mi
Dew Point: -18°   Wind: 7mph
Humidity: 84%   Direction: 230°SW
Pressure: 30.92"   Gusts: NA
Location:  54.37°N, 66.97°E
Report Text: UACP 251000Z 23003MPS CAVOK M26/M28 Q1047 R23/8/99//NOSIG RMK QFE773/1030
Loading
Personal Weather Stations






























Interactive Weather Map New forecast layout! Learn more

10-Day Weather Forecast

Advertisements
Track Severe Weather on mobile